Manchester, CA

8:35 AM PDT on September 30, 2014 (GMT -0700)
Irish Beach | Change Station
CLOSE
Current Station
Personal Weather Station
Location: Manchester, CA
Elevation: 276 ft
Nearby Weather Stations

Elev 276 ft 39.02 °N, 123.69 °W | Updated 4 minutes ago

Partly Cloudy
Partly Cloudy
55.4 °F
Feels Like 55.4 °F
N
2.0
Wind Variable Wind from NNE

Today
High -- | Low -- °F
--% Chance of Precip.
Yesterday
High -- | Low -- °F
Precip. -- in
7:09 AM 6:58 PM
Waxing Crescent, 37% visible
Pressure 29.98 in
Visibility 10.0 miles
Clouds Clear
Dew Point 53 °F
Humidity 92%
Rainfall 0.00 in
Snow Depth 0 in , 0 in , 0 in
UV 0 out of 12
Pollen 4.80 out of 12
Air Quality Not available.
Flu Activity Not available.
METAR KUKI 301456Z AUTO 00000KT 10SM CLR 11/09 A2999 RMK AO2 SLP150 T01060094 51007

More Conditions Fewer Conditions

Pressure 29.98 in
Visibility 10.0 miles
Clouds Clear
Dew Point 53 °F
Humidity 92%
Rainfall 0.00 in
Snow Depth 0 in , 0 in , 0 in
UV 0 out of 12
Pollen 4.80 out of 12
Air Quality Not available.
Flu Activity Not available.
METAR KUKI 301456Z AUTO 00000KT 10SM CLR 11/09 A2999 RMK AO2 SLP150 T01060094 51007

More Conditions Fewer Conditions

10-Day Weather Forecast

Almanac

Astronomy

Sep. 30, 2014 Rise Set
Actual Time 7:09 AM PDT 6:58 PM PDT
Civil Twilight 6:43 AM PDT 7:25 PM PDT
Nautical Twilight 6:12 AM PDT 7:56 PM PDT
Astronomical Twilight 5:41 AM PDT 8:27 PM PDT
Moon 1:20 PM PDT 11:36 PM PDT
Length of Visible Light 12h 42m
Length of Day
11h 48m
Tomorrow will be 2m 31s shorter.
Waxing Crescent, 37% of the Moon is Illuminated
Today
Waxing Crescent
Oct 1
First Quarter
Oct 8
Full
Oct 15
Last Quarter
Oct 23
New

Today's Extremes

State Highs State Lows

Community

WunderPhotos

Upload Photos

1,757,669 photos uploaded!

Nearby

Snow Depth

Station Depth Elevation
Crowder Flat 0 in 5100 ft
Ebbetts Pass 0 in 8700 ft
Poison Flat 0 in 7900 ft
Monitor Pass 1 in 8350 ft
Burnside Lake 2 in 8139 ft

Earthquake Activity

City Distance Mag. Time & Date
American Canyon, California 94 miles 2.6 12:17 AM PDT
2014-09-29
Ferndale, California 140 miles 3.0 6:53 AM PDT
2014-09-28
Minimum magnitude displayed is 2.5.

Coastal Water Temperatures

Place Temperature
Arena Cove, CA 55.0 °F
North Spit, CA 57.9 °F
Point Reyes, CA 57.9 °F
San Francisco, CA 64.9 °F
Richmond, CA 66.9 °F

Nearby Weather Stations